sensor_id;sensor_type;location;lat;lon;timestamp;temperature;humidity
64198;SHT31;50512;53.666;9.700;2022-08-19T00:01:16;19.83;87.53
64198;SHT31;50512;53.666;9.700;2022-08-19T00:03:43;19.85;87.51
64198;SHT31;50512;53.666;9.700;2022-08-19T00:06:08;19.92;87.36
64198;SHT31;50512;53.666;9.700;2022-08-19T00:08:34;19.89;87.52
64198;SHT31;50512;53.666;9.700;2022-08-19T00:10:59;19.83;87.82
64198;SHT31;50512;53.666;9.700;2022-08-19T00:13:25;19.87;87.22
64198;SHT31;50512;53.666;9.700;2022-08-19T00:15:50;19.86;87.38
64198;SHT31;50512;53.666;9.700;2022-08-19T00:18:15;19.86;87.42
64198;SHT31;50512;53.666;9.700;2022-08-19T00:20:42;19.87;87.40
64198;SHT31;50512;53.666;9.700;2022-08-19T00:23:08;19.94;87.39
64198;SHT31;50512;53.666;9.700;2022-08-19T00:25:33;19.90;87.32
64198;SHT31;50512;53.666;9.700;2022-08-19T00:27:59;19.85;87.73
64198;SHT31;50512;53.666;9.700;2022-08-19T00:30:24;19.83;87.86
64198;SHT31;50512;53.666;9.700;2022-08-19T00:32:50;19.79;88.08
64198;SHT31;50512;53.666;9.700;2022-08-19T00:35:15;19.72;88.32
64198;SHT31;50512;53.666;9.700;2022-08-19T00:37:42;19.75;88.50
64198;SHT31;50512;53.666;9.700;2022-08-19T00:40:09;19.73;88.31
64198;SHT31;50512;53.666;9.700;2022-08-19T00:42:35;19.71;88.57
64198;SHT31;50512;53.666;9.700;2022-08-19T00:45:00;19.73;88.69
64198;SHT31;50512;53.666;9.700;2022-08-19T00:47:26;19.71;88.73
64198;SHT31;50512;53.666;9.700;2022-08-19T00:49:54;19.75;88.82
64198;SHT31;50512;53.666;9.700;2022-08-19T00:52:23;19.71;89.05
64198;SHT31;50512;53.666;9.700;2022-08-19T00:54:51;19.63;89.24
64198;SHT31;50512;53.666;9.700;2022-08-19T00:57:18;19.63;89.39
64198;SHT31;50512;53.666;9.700;2022-08-19T00:59:47;19.66;89.61
64198;SHT31;50512;53.666;9.700;2022-08-19T01:02:16;19.62;89.66
64198;SHT31;50512;53.666;9.700;2022-08-19T01:04:42;19.66;89.50
64198;SHT31;50512;53.666;9.700;2022-08-19T01:07:08;19.68;89.78
64198;SHT31;50512;53.666;9.700;2022-08-19T01:09:33;19.61;89.88
64198;SHT31;50512;53.666;9.700;2022-08-19T01:12:00;19.58;90.13
64198;SHT31;50512;53.666;9.700;2022-08-19T01:14:26;19.57;90.05
64198;SHT31;50512;53.666;9.700;2022-08-19T01:16:52;19.57;90.29
64198;SHT31;50512;53.666;9.700;2022-08-19T01:19:26;19.55;90.33
64198;SHT31;50512;53.666;9.700;2022-08-19T01:21:56;19.55;90.43
64198;SHT31;50512;53.666;9.700;2022-08-19T01:24:25;19.57;90.56
64198;SHT31;50512;53.666;9.700;2022-08-19T01:26:51;19.57;90.59
64198;SHT31;50512;53.666;9.700;2022-08-19T01:29:16;19.51;90.75
64198;SHT31;50512;53.666;9.700;2022-08-19T01:31:42;19.48;90.91
64198;SHT31;50512;53.666;9.700;2022-08-19T01:34:07;19.50;91.07
64198;SHT31;50512;53.666;9.700;2022-08-19T01:36:35;19.51;90.98
64198;SHT31;50512;53.666;9.700;2022-08-19T01:39:04;19.47;91.03
64198;SHT31;50512;53.666;9.700;2022-08-19T01:41:31;19.48;91.19
64198;SHT31;50512;53.666;9.700;2022-08-19T01:43:57;19.45;91.20
64198;SHT31;50512;53.666;9.700;2022-08-19T01:46:22;19.50;91.10
64198;SHT31;50512;53.666;9.700;2022-08-19T01:48:48;19.57;90.89
64198;SHT31;50512;53.666;9.700;2022-08-19T01:51:14;19.54;90.86
64198;SHT31;50512;53.666;9.700;2022-08-19T01:53:39;19.52;91.09
64198;SHT31;50512;53.666;9.700;2022-08-19T01:56:08;19.54;91.09
64198;SHT31;50512;53.666;9.700;2022-08-19T01:58:38;19.51;91.25
64198;SHT31;50512;53.666;9.700;2022-08-19T02:01:05;19.47;91.29
64198;SHT31;50512;53.666;9.700;2022-08-19T02:03:31;19.38;91.56
64198;SHT31;50512;53.666;9.700;2022-08-19T02:05:58;19.34;91.61
64198;SHT31;50512;53.666;9.700;2022-08-19T02:08:25;19.30;91.86
64198;SHT31;50512;53.666;9.700;2022-08-19T02:10:50;19.28;92.02
64198;SHT31;50512;53.666;9.700;2022-08-19T02:13:15;19.31;91.76
64198;SHT31;50512;53.666;9.700;2022-08-19T02:15:42;19.38;91.68
64198;SHT31;50512;53.666;9.700;2022-08-19T02:18:08;19.38;91.55
64198;SHT31;50512;53.666;9.700;2022-08-19T02:20:34;19.38;91.48
64198;SHT31;50512;53.666;9.700;2022-08-19T02:23:00;19.32;91.50
64198;SHT31;50512;53.666;9.700;2022-08-19T02:25:25;19.28;91.76
64198;SHT31;50512;53.666;9.700;2022-08-19T02:27:51;19.32;91.74
64198;SHT31;50512;53.666;9.700;2022-08-19T02:30:17;19.31;91.74
64198;SHT31;50512;53.666;9.700;2022-08-19T02:32:44;19.27;91.92
64198;SHT31;50512;53.666;9.700;2022-08-19T02:35:10;19.25;91.87
64198;SHT31;50512;53.666;9.700;2022-08-19T02:37:36;19.30;91.67
64198;SHT31;50512;53.666;9.700;2022-08-19T02:40:02;19.28;91.65
64198;SHT31;50512;53.666;9.700;2022-08-19T02:42:28;19.30;91.40
64198;SHT31;50512;53.666;9.700;2022-08-19T02:44:55;19.31;91.50
64198;SHT31;50512;53.666;9.700;2022-08-19T02:47:21;19.28;91.53
64198;SHT31;50512;53.666;9.700;2022-08-19T02:49:48;19.30;91.32
64198;SHT31;50512;53.666;9.700;2022-08-19T02:52:13;19.31;91.41
64198;SHT31;50512;53.666;9.700;2022-08-19T02:54:38;19.30;91.39
64198;SHT31;50512;53.666;9.700;2022-08-19T02:57:04;19.31;91.31
64198;SHT31;50512;53.666;9.700;2022-08-19T02:59:30;19.24;91.58
64198;SHT31;50512;53.666;9.700;2022-08-19T03:01:56;19.24;91.79
64198;SHT31;50512;53.666;9.700;2022-08-19T03:04:21;19.25;92.04
64198;SHT31;50512;53.666;9.700;2022-08-19T03:06:48;19.23;92.06
64198;SHT31;50512;53.666;9.700;2022-08-19T03:09:15;19.24;91.79
64198;SHT31;50512;53.666;9.700;2022-08-19T03:11:40;19.23;91.96
64198;SHT31;50512;53.666;9.700;2022-08-19T03:14:07;19.20;92.11
64198;SHT31;50512;53.666;9.700;2022-08-19T03:16:35;19.18;92.34
64198;SHT31;50512;53.666;9.700;2022-08-19T03:19:01;19.16;92.43
64198;SHT31;50512;53.666;9.700;2022-08-19T03:21:30;19.17;92.38
64198;SHT31;50512;53.666;9.700;2022-08-19T03:23:59;19.17;92.62
64198;SHT31;50512;53.666;9.700;2022-08-19T03:26:25;19.17;92.58
64198;SHT31;50512;53.666;9.700;2022-08-19T03:28:51;19.16;92.62
64198;SHT31;50512;53.666;9.700;2022-08-19T03:31:18;19.16;92.61
64198;SHT31;50512;53.666;9.700;2022-08-19T03:33:45;19.17;92.64
64198;SHT31;50512;53.666;9.700;2022-08-19T03:36:14;19.14;92.46
64198;SHT31;50512;53.666;9.700;2022-08-19T03:38:41;19.18;92.52
64198;SHT31;50512;53.666;9.700;2022-08-19T03:41:11;19.18;92.51
64198;SHT31;50512;53.666;9.700;2022-08-19T03:43:38;19.20;92.42
64198;SHT31;50512;53.666;9.700;2022-08-19T03:46:06;19.17;92.29
64198;SHT31;50512;53.666;9.700;2022-08-19T03:48:32;19.17;92.43
64198;SHT31;50512;53.666;9.700;2022-08-19T03:50:58;19.20;92.43
64198;SHT31;50512;53.666;9.700;2022-08-19T03:53:24;19.27;91.85
64198;SHT31;50512;53.666;9.700;2022-08-19T03:55:50;19.28;91.51
64198;SHT31;50512;53.666;9.700;2022-08-19T03:58:17;19.23;91.79
64198;SHT31;50512;53.666;9.700;2022-08-19T04:00:43;19.21;91.74
64198;SHT31;50512;53.666;9.700;2022-08-19T04:03:08;19.27;91.44
64198;SHT31;50512;53.666;9.700;2022-08-19T04:05:34;19.20;91.14
64198;SHT31;50512;53.666;9.700;2022-08-19T04:07:59;19.27;90.88
64198;SHT31;50512;53.666;9.700;2022-08-19T04:10:25;19.20;90.89
64198;SHT31;50512;53.666;9.700;2022-08-19T04:12:50;19.24;90.15
64198;SHT31;50512;53.666;9.700;2022-08-19T04:15:17;19.20;90.68
64198;SHT31;50512;53.666;9.700;2022-08-19T04:17:43;19.16;90.52
64198;SHT31;50512;53.666;9.700;2022-08-19T04:20:08;19.14;90.79
64198;SHT31;50512;53.666;9.700;2022-08-19T04:22:34;19.14;90.69
64198;SHT31;50512;53.666;9.700;2022-08-19T04:24:59;19.14;90.57
64198;SHT31;50512;53.666;9.700;2022-08-19T04:27:25;19.11;90.39
64198;SHT31;50512;53.666;9.700;2022-08-19T04:29:50;19.10;90.45
64198;SHT31;50512;53.666;9.700;2022-08-19T04:32:17;19.10;90.63
64198;SHT31;50512;53.666;9.700;2022-08-19T04:34:43;19.10;90.52
64198;SHT31;50512;53.666;9.700;2022-08-19T04:37:08;19.08;90.55
64198;SHT31;50512;53.666;9.700;2022-08-19T04:39:34;19.11;90.61
64198;SHT31;50512;53.666;9.700;2022-08-19T04:41:59;19.08;90.63
64198;SHT31;50512;53.666;9.700;2022-08-19T04:44:25;19.16;90.55
64198;SHT31;50512;53.666;9.700;2022-08-19T04:46:51;19.14;90.39
64198;SHT31;50512;53.666;9.700;2022-08-19T04:49:21;19.08;90.35
64198;SHT31;50512;53.666;9.700;2022-08-19T04:51:46;19.14;90.60
64198;SHT31;50512;53.666;9.700;2022-08-19T04:54:12;19.11;90.62
64198;SHT31;50512;53.666;9.700;2022-08-19T04:56:38;19.08;90.65
64198;SHT31;50512;53.666;9.700;2022-08-19T04:59:04;19.06;90.36
64198;SHT31;50512;53.666;9.700;2022-08-19T05:01:31;19.08;90.71
64198;SHT31;50512;53.666;9.700;2022-08-19T05:03:57;19.08;90.73
64198;SHT31;50512;53.666;9.700;2022-08-19T05:06:25;19.07;90.43
64198;SHT31;50512;53.666;9.700;2022-08-19T05:08:50;19.08;90.82
64198;SHT31;50512;53.666;9.700;2022-08-19T05:11:17;19.13;90.84
64198;SHT31;50512;53.666;9.700;2022-08-19T05:13:43;19.11;90.86
64198;SHT31;50512;53.666;9.700;2022-08-19T05:16:10;19.13;90.69
64198;SHT31;50512;53.666;9.700;2022-08-19T05:18:37;19.13;90.81
64198;SHT31;50512;53.666;9.700;2022-08-19T05:21:05;19.14;90.69
64198;SHT31;50512;53.666;9.700;2022-08-19T05:23:32;19.17;90.88
64198;SHT31;50512;53.666;9.700;2022-08-19T05:25:58;19.17;90.77
64198;SHT31;50512;53.666;9.700;2022-08-19T05:28:23;19.18;90.92
64198;SHT31;50512;53.666;9.700;2022-08-19T05:30:49;19.20;90.98
64198;SHT31;50512;53.666;9.700;2022-08-19T05:33:14;19.21;91.00
64198;SHT31;50512;53.666;9.700;2022-08-19T05:35:40;19.24;91.03
64198;SHT31;50512;53.666;9.700;2022-08-19T05:38:06;19.27;91.19
64198;SHT31;50512;53.666;9.700;2022-08-19T05:40:34;19.28;91.08
64198;SHT31;50512;53.666;9.700;2022-08-19T05:42:59;19.32;90.83
64198;SHT31;50512;53.666;9.700;2022-08-19T05:45:25;19.35;90.98
64198;SHT31;50512;53.666;9.700;2022-08-19T05:47:50;19.35;90.95
64198;SHT31;50512;53.666;9.700;2022-08-19T05:50:16;19.35;90.45
64198;SHT31;50512;53.666;9.700;2022-08-19T05:52:41;19.34;90.56
64198;SHT31;50512;53.666;9.700;2022-08-19T05:55:07;19.36;90.49
64198;SHT31;50512;53.666;9.700;2022-08-19T05:57:34;19.41;90.42
64198;SHT31;50512;53.666;9.700;2022-08-19T05:59:59;19.42;90.53
64198;SHT31;50512;53.666;9.700;2022-08-19T06:02:24;19.45;89.91
64198;SHT31;50512;53.666;9.700;2022-08-19T06:04:50;19.48;89.63
64198;SHT31;50512;53.666;9.700;2022-08-19T06:07:15;19.50;89.59
64198;SHT31;50512;53.666;9.700;2022-08-19T06:09:41;19.54;89.58
64198;SHT31;50512;53.666;9.700;2022-08-19T06:12:07;19.54;89.08
64198;SHT31;50512;53.666;9.700;2022-08-19T06:14:35;19.51;89.14
64198;SHT31;50512;53.666;9.700;2022-08-19T06:17:00;19.54;89.24
64198;SHT31;50512;53.666;9.700;2022-08-19T06:19:26;19.55;89.15
64198;SHT31;50512;53.666;9.700;2022-08-19T06:21:52;19.54;88.92
64198;SHT31;50512;53.666;9.700;2022-08-19T06:24:20;19.58;88.98
64198;SHT31;50512;53.666;9.700;2022-08-19T06:26:48;19.58;88.75
64198;SHT31;50512;53.666;9.700;2022-08-19T06:29:15;19.57;88.83
64198;SHT31;50512;53.666;9.700;2022-08-19T06:31:44;19.58;88.90
64198;SHT31;50512;53.666;9.700;2022-08-19T06:34:10;19.57;88.98
64198;SHT31;50512;53.666;9.700;2022-08-19T06:36:38;19.55;89.05
64198;SHT31;50512;53.666;9.700;2022-08-19T06:39:05;19.58;89.30
64198;SHT31;50512;53.666;9.700;2022-08-19T06:41:34;19.55;89.34
64198;SHT31;50512;53.666;9.700;2022-08-19T06:44:00;19.55;89.25
64198;SHT31;50512;53.666;9.700;2022-08-19T06:46:26;19.57;89.30
64198;SHT31;50512;53.666;9.700;2022-08-19T06:48:53;19.65;89.16
64198;SHT31;50512;53.666;9.700;2022-08-19T06:51:19;19.62;89.12
64198;SHT31;50512;53.666;9.700;2022-08-19T06:53:44;19.68;88.69
64198;SHT31;50512;53.666;9.700;2022-08-19T06:56:10;19.69;88.65
64198;SHT31;50512;53.666;9.700;2022-08-19T06:58:35;19.71;88.39
64198;SHT31;50512;53.666;9.700;2022-08-19T07:01:02;19.75;88.53
64198;SHT31;50512;53.666;9.700;2022-08-19T07:03:29;19.78;88.18
64198;SHT31;50512;53.666;9.700;2022-08-19T07:05:56;19.78;88.20
64198;SHT31;50512;53.666;9.700;2022-08-19T07:08:22;19.72;88.19
64198;SHT31;50512;53.666;9.700;2022-08-19T07:10:47;19.76;88.25
64198;SHT31;50512;53.666;9.700;2022-08-19T07:13:13;19.73;88.41
64198;SHT31;50512;53.666;9.700;2022-08-19T07:15:39;19.73;88.49
64198;SHT31;50512;53.666;9.700;2022-08-19T07:18:04;19.78;88.40
64198;SHT31;50512;53.666;9.700;2022-08-19T07:20:29;19.83;88.17
64198;SHT31;50512;53.666;9.700;2022-08-19T07:22:56;19.90;87.78
64198;SHT31;50512;53.666;9.700;2022-08-19T07:25:22;19.90;87.82
64198;SHT31;50512;53.666;9.700;2022-08-19T07:27:48;19.89;87.82
64198;SHT31;50512;53.666;9.700;2022-08-19T07:30:13;19.86;87.98
64198;SHT31;50512;53.666;9.700;2022-08-19T07:32:39;19.87;88.00
64198;SHT31;50512;53.666;9.700;2022-08-19T07:35:06;19.90;88.12
64198;SHT31;50512;53.666;9.700;2022-08-19T07:37:32;19.92;87.18
64198;SHT31;50512;53.666;9.700;2022-08-19T07:39:59;19.90;87.96
64198;SHT31;50512;53.666;9.700;2022-08-19T07:42:25;19.93;88.15
64198;SHT31;50512;53.666;9.700;2022-08-19T07:44:50;19.97;87.68
64198;SHT31;50512;53.666;9.700;2022-08-19T07:47:16;19.99;87.93
64198;SHT31;50512;53.666;9.700;2022-08-19T07:49:41;20.01;88.02
64198;SHT31;50512;53.666;9.700;2022-08-19T07:52:08;20.07;88.04
64198;SHT31;50512;53.666;9.700;2022-08-19T07:54:36;20.01;87.55
64198;SHT31;50512;53.666;9.700;2022-08-19T07:57:04;20.03;87.67
64198;SHT31;50512;53.666;9.700;2022-08-19T07:59:30;19.97;87.88
64198;SHT31;50512;53.666;9.700;2022-08-19T08:01:57;19.94;87.79
64198;SHT31;50512;53.666;9.700;2022-08-19T08:04:22;19.90;87.72
64198;SHT31;50512;53.666;9.700;2022-08-19T08:06:48;19.86;87.69
64198;SHT31;50512;53.666;9.700;2022-08-19T08:09:14;19.86;88.07
64198;SHT31;50512;53.666;9.700;2022-08-19T08:11:42;19.93;87.69
64198;SHT31;50512;53.666;9.700;2022-08-19T08:14:09;19.85;87.79
64198;SHT31;50512;53.666;9.700;2022-08-19T08:16:36;19.85;87.57
64198;SHT31;50512;53.666;9.700;2022-08-19T08:19:04;19.80;88.06
64198;SHT31;50512;53.666;9.700;2022-08-19T08:21:29;19.79;88.27
64198;SHT31;50512;53.666;9.700;2022-08-19T08:23:54;19.76;88.65
64198;SHT31;50512;53.666;9.700;2022-08-19T08:26:20;19.71;88.91
64198;SHT31;50512;53.666;9.700;2022-08-19T08:28:45;19.69;89.33
64198;SHT31;50512;53.666;9.700;2022-08-19T08:31:12;19.71;89.33
64198;SHT31;50512;53.666;9.700;2022-08-19T08:33:38;19.66;89.29
64198;SHT31;50512;53.666;9.700;2022-08-19T08:36:04;19.73;89.28
64198;SHT31;50512;53.666;9.700;2022-08-19T08:38:30;19.75;89.15
64198;SHT31;50512;53.666;9.700;2022-08-19T08:40:59;19.76;89.25
64198;SHT31;50512;53.666;9.700;2022-08-19T08:43:29;19.78;88.90
64198;SHT31;50512;53.666;9.700;2022-08-19T08:46:00;19.76;89.18
64198;SHT31;50512;53.666;9.700;2022-08-19T08:48:34;19.76;89.18
64198;SHT31;50512;53.666;9.700;2022-08-19T08:51:04;19.82;88.96
64198;SHT31;50512;53.666;9.700;2022-08-19T08:53:31;19.83;89.12
64198;SHT31;50512;53.666;9.700;2022-08-19T08:55:57;19.86;89.08
64198;SHT31;50512;53.666;9.700;2022-08-19T08:58:26;19.93;89.00
64198;SHT31;50512;53.666;9.700;2022-08-19T09:00:53;19.99;89.36
64198;SHT31;50512;53.666;9.700;2022-08-19T09:03:20;20.01;88.90
64198;SHT31;50512;53.666;9.700;2022-08-19T09:05:55;20.09;88.86
64198;SHT31;50512;53.666;9.700;2022-08-19T09:08:23;20.10;88.98
64198;SHT31;50512;53.666;9.700;2022-08-19T09:10:54;20.13;89.07
64198;SHT31;50512;53.666;9.700;2022-08-19T09:13:26;20.13;89.23
64198;SHT31;50512;53.666;9.700;2022-08-19T09:15:58;20.12;89.42
64198;SHT31;50512;53.666;9.700;2022-08-19T09:18:25;20.12;89.25
64198;SHT31;50512;53.666;9.700;2022-08-19T09:20:52;20.14;89.73
64198;SHT31;50512;53.666;9.700;2022-08-19T09:23:17;20.20;89.70
64198;SHT31;50512;53.666;9.700;2022-08-19T09:25:43;20.30;89.19
64198;SHT31;50512;53.666;9.700;2022-08-19T09:28:08;20.41;88.93
64198;SHT31;50512;53.666;9.700;2022-08-19T09:30:38;20.59;89.07
64198;SHT31;50512;53.666;9.700;2022-08-19T09:33:05;20.86;88.10
64198;SHT31;50512;53.666;9.700;2022-08-19T09:35:31;21.03;87.09
64198;SHT31;50512;53.666;9.700;2022-08-19T09:37:59;21.11;86.34
64198;SHT31;50512;53.666;9.700;2022-08-19T09:40:25;21.07;86.15
64198;SHT31;50512;53.666;9.700;2022-08-19T09:42:51;20.99;86.69
64198;SHT31;50512;53.666;9.700;2022-08-19T09:45:18;20.96;86.93
64198;SHT31;50512;53.666;9.700;2022-08-19T09:47:44;20.90;86.87
64198;SHT31;50512;53.666;9.700;2022-08-19T09:50:11;20.88;87.31
64198;SHT31;50512;53.666;9.700;2022-08-19T09:52:37;20.88;87.60
64198;SHT31;50512;53.666;9.700;2022-08-19T09:55:06;20.86;87.82
64198;SHT31;50512;53.666;9.700;2022-08-19T09:57:32;20.83;87.68
64198;SHT31;50512;53.666;9.700;2022-08-19T09:59:58;20.79;87.91
64198;SHT31;50512;53.666;9.700;2022-08-19T10:02:23;20.76;87.40
64198;SHT31;50512;53.666;9.700;2022-08-19T10:04:48;20.86;87.46
64198;SHT31;50512;53.666;9.700;2022-08-19T10:07:14;20.95;87.02
64198;SHT31;50512;53.666;9.700;2022-08-19T10:09:40;21.13;86.57
64198;SHT31;50512;53.666;9.700;2022-08-19T10:12:07;21.23;86.45
64198;SHT31;50512;53.666;9.700;2022-08-19T10:14:33;21.28;85.45
64198;SHT31;50512;53.666;9.700;2022-08-19T10:16:59;21.31;85.41
64198;SHT31;50512;53.666;9.700;2022-08-19T10:19:26;21.37;85.63
64198;SHT31;50512;53.666;9.700;2022-08-19T10:21:51;21.35;85.37
64198;SHT31;50512;53.666;9.700;2022-08-19T10:24:17;21.27;85.14
64198;SHT31;50512;53.666;9.700;2022-08-19T10:26:42;21.33;85.54
64198;SHT31;50512;53.666;9.700;2022-08-19T10:29:09;21.38;85.46
64198;SHT31;50512;53.666;9.700;2022-08-19T10:31:35;21.45;85.11
64198;SHT31;50512;53.666;9.700;2022-08-19T10:34:01;21.43;84.96
64198;SHT31;50512;53.666;9.700;2022-08-19T10:36:29;21.34;85.00
64198;SHT31;50512;53.666;9.700;2022-08-19T10:38:57;21.40;85.13
64198;SHT31;50512;53.666;9.700;2022-08-19T10:41:24;21.47;84.84
64198;SHT31;50512;53.666;9.700;2022-08-19T10:43:51;21.54;84.56
64198;SHT31;50512;53.666;9.700;2022-08-19T10:46:18;21.62;84.72
64198;SHT31;50512;53.666;9.700;2022-08-19T10:48:44;21.59;84.21
64198;SHT31;50512;53.666;9.700;2022-08-19T10:51:10;21.64;84.44
64198;SHT31;50512;53.666;9.700;2022-08-19T10:53:36;21.54;83.59
64198;SHT31;50512;53.666;9.700;2022-08-19T10:56:02;21.58;83.99
64198;SHT31;50512;53.666;9.700;2022-08-19T10:58:27;21.83;84.02
64198;SHT31;50512;53.666;9.700;2022-08-19T11:00:54;22.20;83.36
64198;SHT31;50512;53.666;9.700;2022-08-19T11:03:22;22.60;82.21
64198;SHT31;50512;53.666;9.700;2022-08-19T11:05:57;22.94;80.71
64198;SHT31;50512;53.666;9.700;2022-08-19T11:08:23;23.06;79.91
64198;SHT31;50512;53.666;9.700;2022-08-19T11:10:48;23.05;79.93
64198;SHT31;50512;53.666;9.700;2022-08-19T11:13:14;22.99;80.14
64198;SHT31;50512;53.666;9.700;2022-08-19T11:15:39;22.84;80.27
64198;SHT31;50512;53.666;9.700;2022-08-19T11:18:04;22.75;80.72
64198;SHT31;50512;53.666;9.700;2022-08-19T11:20:31;22.72;80.60
64198;SHT31;50512;53.666;9.700;2022-08-19T11:22:57;22.68;80.44
64198;SHT31;50512;53.666;9.700;2022-08-19T11:25:22;22.75;81.04
64198;SHT31;50512;53.666;9.700;2022-08-19T11:27:48;22.79;81.19
64198;SHT31;50512;53.666;9.700;2022-08-19T11:30:13;22.75;80.73
64198;SHT31;50512;53.666;9.700;2022-08-19T11:32:39;22.82;80.93
64198;SHT31;50512;53.666;9.700;2022-08-19T11:35:05;22.87;80.80
64198;SHT31;50512;53.666;9.700;2022-08-19T11:37:32;23.00;80.01
64198;SHT31;50512;53.666;9.700;2022-08-19T11:39:57;23.23;79.77
64198;SHT31;50512;53.666;9.700;2022-08-19T11:42:23;23.53;78.78
64198;SHT31;50512;53.666;9.700;2022-08-19T11:44:48;23.75;77.96
64198;SHT31;50512;53.666;9.700;2022-08-19T11:47:14;23.92;76.70
64198;SHT31;50512;53.666;9.700;2022-08-19T11:49:39;24.02;76.28
64198;SHT31;50512;53.666;9.700;2022-08-19T11:52:05;24.09;76.08
64198;SHT31;50512;53.666;9.700;2022-08-19T11:54:32;23.99;76.57
64198;SHT31;50512;53.666;9.700;2022-08-19T11:56:57;24.01;76.55
64198;SHT31;50512;53.666;9.700;2022-08-19T11:59:22;23.89;76.26
64198;SHT31;50512;53.666;9.700;2022-08-19T12:01:48;23.94;76.76
64198;SHT31;50512;53.666;9.700;2022-08-19T12:04:13;24.04;76.80
64198;SHT31;50512;53.666;9.700;2022-08-19T12:06:40;24.15;76.82
64198;SHT31;50512;53.666;9.700;2022-08-19T12:09:06;24.25;76.16
64198;SHT31;50512;53.666;9.700;2022-08-19T12:11:34;24.23;76.27
64198;SHT31;50512;53.666;9.700;2022-08-19T12:14:00;24.23;75.79
64198;SHT31;50512;53.666;9.700;2022-08-19T12:16:28;24.13;75.92
64198;SHT31;50512;53.666;9.700;2022-08-19T12:18:54;24.06;76.16
64198;SHT31;50512;53.666;9.700;2022-08-19T12:21:22;24.09;75.85
64198;SHT31;50512;53.666;9.700;2022-08-19T12:23:49;24.08;75.98
64198;SHT31;50512;53.666;9.700;2022-08-19T12:26:15;24.09;75.93
64198;SHT31;50512;53.666;9.700;2022-08-19T12:28:43;24.19;76.07
64198;SHT31;50512;53.666;9.700;2022-08-19T12:31:09;24.33;75.54
64198;SHT31;50512;53.666;9.700;2022-08-19T12:33:34;24.44;75.46
64198;SHT31;50512;53.666;9.700;2022-08-19T12:36:01;24.64;74.86
64198;SHT31;50512;53.666;9.700;2022-08-19T12:38:27;24.81;74.34
64198;SHT31;50512;53.666;9.700;2022-08-19T12:40:53;24.95;73.13
64198;SHT31;50512;53.666;9.700;2022-08-19T12:43:18;25.01;72.41
64198;SHT31;50512;53.666;9.700;2022-08-19T12:45:45;25.05;72.95
64198;SHT31;50512;53.666;9.700;2022-08-19T12:48:11;25.01;72.86
64198;SHT31;50512;53.666;9.700;2022-08-19T12:50:39;25.01;73.95
64198;SHT31;50512;53.666;9.700;2022-08-19T12:53:04;24.98;73.03
64198;SHT31;50512;53.666;9.700;2022-08-19T12:55:30;24.98;74.03
64198;SHT31;50512;53.666;9.700;2022-08-19T12:57:55;24.98;73.54
64198;SHT31;50512;53.666;9.700;2022-08-19T13:00:21;24.88;73.36
64198;SHT31;50512;53.666;9.700;2022-08-19T13:02:51;24.95;73.32
64198;SHT31;50512;53.666;9.700;2022-08-19T13:05:20;24.82;72.90
64198;SHT31;50512;53.666;9.700;2022-08-19T13:07:46;24.71;74.04
64198;SHT31;50512;53.666;9.700;2022-08-19T13:10:13;24.67;74.65
64198;SHT31;50512;53.666;9.700;2022-08-19T13:12:39;24.68;73.71
64198;SHT31;50512;53.666;9.700;2022-08-19T13:15:05;24.73;73.11
64198;SHT31;50512;53.666;9.700;2022-08-19T13:17:33;24.71;73.38
64198;SHT31;50512;53.666;9.700;2022-08-19T13:20:00;24.65;73.33
64198;SHT31;50512;53.666;9.700;2022-08-19T13:22:25;24.49;74.12
64198;SHT31;50512;53.666;9.700;2022-08-19T13:24:51;24.52;74.48
64198;SHT31;50512;53.666;9.700;2022-08-19T13:27:16;24.44;74.65
64198;SHT31;50512;53.666;9.700;2022-08-19T13:29:42;24.53;74.27
64198;SHT31;50512;53.666;9.700;2022-08-19T13:32:07;24.60;74.05
64198;SHT31;50512;53.666;9.700;2022-08-19T13:34:34;24.67;73.95
64198;SHT31;50512;53.666;9.700;2022-08-19T13:37:02;24.77;73.48
64198;SHT31;50512;53.666;9.700;2022-08-19T13:39:28;24.54;73.25
64198;SHT31;50512;53.666;9.700;2022-08-19T13:41:54;24.53;73.47
64198;SHT31;50512;53.666;9.700;2022-08-19T13:44:20;24.60;74.42
64198;SHT31;50512;53.666;9.700;2022-08-19T13:46:46;24.49;73.79
64198;SHT31;50512;53.666;9.700;2022-08-19T13:49:12;24.56;74.05
64198;SHT31;50512;53.666;9.700;2022-08-19T13:51:38;24.47;74.08
64198;SHT31;50512;53.666;9.700;2022-08-19T13:54:06;24.56;74.14
64198;SHT31;50512;53.666;9.700;2022-08-19T13:56:31;24.63;74.28
64198;SHT31;50512;53.666;9.700;2022-08-19T13:58:57;24.65;74.37
64198;SHT31;50512;53.666;9.700;2022-08-19T14:01:23;24.73;73.28
64198;SHT31;50512;53.666;9.700;2022-08-19T14:03:48;24.70;73.32
64198;SHT31;50512;53.666;9.700;2022-08-19T14:06:14;24.78;73.41
64198;SHT31;50512;53.666;9.700;2022-08-19T14:08:39;24.67;73.44
64198;SHT31;50512;53.666;9.700;2022-08-19T14:11:06;24.59;73.09
64198;SHT31;50512;53.666;9.700;2022-08-19T14:13:32;24.56;73.06
64198;SHT31;50512;53.666;9.700;2022-08-19T14:15:57;24.60;73.36
64198;SHT31;50512;53.666;9.700;2022-08-19T14:18:23;24.65;73.14
64198;SHT31;50512;53.666;9.700;2022-08-19T14:20:48;24.73;73.07
64198;SHT31;50512;53.666;9.700;2022-08-19T14:23:14;24.82;72.71
64198;SHT31;50512;53.666;9.700;2022-08-19T14:25:39;24.88;72.10
64198;SHT31;50512;53.666;9.700;2022-08-19T14:28:06;24.90;71.71
64198;SHT31;50512;53.666;9.700;2022-08-19T14:30:33;24.92;71.33
64198;SHT31;50512;53.666;9.700;2022-08-19T14:33:00;24.98;70.90
64198;SHT31;50512;53.666;9.700;2022-08-19T14:35:27;24.99;71.03
64198;SHT31;50512;53.666;9.700;2022-08-19T14:37:54;25.01;71.80
64198;SHT31;50512;53.666;9.700;2022-08-19T14:40:20;25.02;71.31
64198;SHT31;50512;53.666;9.700;2022-08-19T14:42:46;25.07;71.32
64198;SHT31;50512;53.666;9.700;2022-08-19T14:45:12;25.33;70.00
64198;SHT31;50512;53.666;9.700;2022-08-19T14:47:38;25.30;69.08
64198;SHT31;50512;53.666;9.700;2022-08-19T14:50:05;25.30;69.26
64198;SHT31;50512;53.666;9.700;2022-08-19T14:52:31;25.23;69.57
64198;SHT31;50512;53.666;9.700;2022-08-19T14:54:56;25.16;70.01
64198;SHT31;50512;53.666;9.700;2022-08-19T14:57:22;25.22;71.30
64198;SHT31;50512;53.666;9.700;2022-08-19T14:59:48;25.25;69.82
64198;SHT31;50512;53.666;9.700;2022-08-19T15:02:16;25.15;69.76
64198;SHT31;50512;53.666;9.700;2022-08-19T15:04:41;24.91;70.91
64198;SHT31;50512;53.666;9.700;2022-08-19T15:07:07;24.70;72.26
64198;SHT31;50512;53.666;9.700;2022-08-19T15:09:33;24.68;71.98
64198;SHT31;50512;53.666;9.700;2022-08-19T15:11:59;24.71;71.42
64198;SHT31;50512;53.666;9.700;2022-08-19T15:14:25;24.84;71.24
64198;SHT31;50512;53.666;9.700;2022-08-19T15:16:50;24.98;70.68
64198;SHT31;50512;53.666;9.700;2022-08-19T15:19:17;24.88;71.16
64198;SHT31;50512;53.666;9.700;2022-08-19T15:21:43;24.70;69.97
64198;SHT31;50512;53.666;9.700;2022-08-19T15:24:08;24.44;70.70